sensor_id;sensor_type;location;lat;lon;timestamp;P1;durP1;ratioP1;P2;durP2;ratioP2
48951;SDS011;34758;42.148;24.744;2022-08-20T00:00:10;8.68;;;6.32;;
48951;SDS011;34758;42.148;24.744;2022-08-20T00:02:42;7.80;;;5.53;;
48951;SDS011;34758;42.148;24.744;2022-08-20T00:05:10;11.95;;;5.65;;
48951;SDS011;34758;42.148;24.744;2022-08-20T00:07:39;8.48;;;5.75;;
48951;SDS011;34758;42.148;24.744;2022-08-20T00:10:08;12.38;;;5.57;;
48951;SDS011;34758;42.148;24.744;2022-08-20T00:12:35;8.25;;;5.80;;
48951;SDS011;34758;42.148;24.744;2022-08-20T00:15:03;9.32;;;5.78;;
48951;SDS011;34758;42.148;24.744;2022-08-20T00:17:31;9.25;;;5.75;;
48951;SDS011;34758;42.148;24.744;2022-08-20T00:20:02;8.32;;;6.05;;
48951;SDS011;34758;42.148;24.744;2022-08-20T00:24:58;11.63;;;6.75;;
48951;SDS011;34758;42.148;24.744;2022-08-20T00:27:25;9.52;;;6.47;;
48951;SDS011;34758;42.148;24.744;2022-08-20T00:29:52;9.68;;;6.43;;
48951;SDS011;34758;42.148;24.744;2022-08-20T00:32:19;9.57;;;6.20;;
48951;SDS011;34758;42.148;24.744;2022-08-20T00:34:45;9.27;;;6.40;;
48951;SDS011;34758;42.148;24.744;2022-08-20T00:37:14;9.00;;;5.85;;
48951;SDS011;34758;42.148;24.744;2022-08-20T00:39:40;6.90;;;5.90;;
48951;SDS011;34758;42.148;24.744;2022-08-20T00:42:08;10.05;;;6.45;;
48951;SDS011;34758;42.148;24.744;2022-08-20T00:44:35;7.28;;;5.72;;
48951;SDS011;34758;42.148;24.744;2022-08-20T00:47:03;7.57;;;6.57;;
48951;SDS011;34758;42.148;24.744;2022-08-20T00:49:31;11.20;;;6.40;;
48951;SDS011;34758;42.148;24.744;2022-08-20T00:51:59;8.55;;;6.13;;
48951;SDS011;34758;42.148;24.744;2022-08-20T00:54:29;7.88;;;7.00;;
48951;SDS011;34758;42.148;24.744;2022-08-20T00:57:00;10.55;;;6.85;;
48951;SDS011;34758;42.148;24.744;2022-08-20T00:59:32;10.33;;;7.33;;
48951;SDS011;34758;42.148;24.744;2022-08-20T01:02:02;8.50;;;7.22;;
48951;SDS011;34758;42.148;24.744;2022-08-20T01:04:31;7.50;;;6.70;;
48951;SDS011;34758;42.148;24.744;2022-08-20T01:06:59;9.55;;;7.00;;
48951;SDS011;34758;42.148;24.744;2022-08-20T01:09:26;8.55;;;7.50;;
48951;SDS011;34758;42.148;24.744;2022-08-20T01:11:54;10.77;;;6.47;;
48951;SDS011;34758;42.148;24.744;2022-08-20T01:14:21;9.68;;;6.97;;
48951;SDS011;34758;42.148;24.744;2022-08-20T01:16:54;8.73;;;6.35;;
48951;SDS011;34758;42.148;24.744;2022-08-20T01:19:26;10.65;;;6.50;;
48951;SDS011;34758;42.148;24.744;2022-08-20T01:21:54;6.85;;;6.20;;
48951;SDS011;34758;42.148;24.744;2022-08-20T01:24:23;8.80;;;6.30;;
48951;SDS011;34758;42.148;24.744;2022-08-20T01:26:53;8.02;;;7.22;;
48951;SDS011;34758;42.148;24.744;2022-08-20T01:29:21;11.68;;;7.10;;
48951;SDS011;34758;42.148;24.744;2022-08-20T01:31:50;9.27;;;6.57;;
48951;SDS011;34758;42.148;24.744;2022-08-20T01:34:17;10.90;;;6.88;;
48951;SDS011;34758;42.148;24.744;2022-08-20T01:36:46;9.30;;;7.47;;
48951;SDS011;34758;42.148;24.744;2022-08-20T01:39:16;10.45;;;7.82;;
48951;SDS011;34758;42.148;24.744;2022-08-20T01:41:51;12.65;;;7.82;;
48951;SDS011;34758;42.148;24.744;2022-08-20T01:44:24;13.00;;;7.88;;
48951;SDS011;34758;42.148;24.744;2022-08-20T01:46:51;11.60;;;7.75;;
48951;SDS011;34758;42.148;24.744;2022-08-20T01:49:20;9.68;;;8.35;;
48951;SDS011;34758;42.148;24.744;2022-08-20T01:51:50;11.75;;;8.13;;
48951;SDS011;34758;42.148;24.744;2022-08-20T01:54:19;10.73;;;7.43;;
48951;SDS011;34758;42.148;24.744;2022-08-20T01:56:51;8.32;;;7.07;;
48951;SDS011;34758;42.148;24.744;2022-08-20T01:59:20;11.25;;;7.32;;
48951;SDS011;34758;42.148;24.744;2022-08-20T02:01:48;9.45;;;7.20;;
48951;SDS011;34758;42.148;24.744;2022-08-20T02:04:15;8.85;;;7.40;;
48951;SDS011;34758;42.148;24.744;2022-08-20T02:06:43;9.10;;;7.20;;
48951;SDS011;34758;42.148;24.744;2022-08-20T02:09:12;9.38;;;6.55;;
48951;SDS011;34758;42.148;24.744;2022-08-20T02:11:40;8.20;;;6.63;;
48951;SDS011;34758;42.148;24.744;2022-08-20T02:14:07;10.35;;;7.03;;
48951;SDS011;34758;42.148;24.744;2022-08-20T02:16:38;9.25;;;7.53;;
48951;SDS011;34758;42.148;24.744;2022-08-20T02:19:09;9.63;;;7.50;;
48951;SDS011;34758;42.148;24.744;2022-08-20T02:21:39;10.20;;;7.00;;
48951;SDS011;34758;42.148;24.744;2022-08-20T02:24:09;10.88;;;6.95;;
48951;SDS011;34758;42.148;24.744;2022-08-20T02:26:36;9.18;;;6.88;;
48951;SDS011;34758;42.148;24.744;2022-08-20T02:29:03;8.50;;;6.53;;
48951;SDS011;34758;42.148;24.744;2022-08-20T02:31:31;9.65;;;6.70;;
48951;SDS011;34758;42.148;24.744;2022-08-20T02:34:00;9.60;;;7.00;;
48951;SDS011;34758;42.148;24.744;2022-08-20T02:36:27;8.05;;;6.90;;
48951;SDS011;34758;42.148;24.744;2022-08-20T02:38:54;8.07;;;7.10;;
48951;SDS011;34758;42.148;24.744;2022-08-20T02:41:21;12.27;;;7.05;;
48951;SDS011;34758;42.148;24.744;2022-08-20T02:43:48;7.25;;;6.50;;
48951;SDS011;34758;42.148;24.744;2022-08-20T02:46:15;8.20;;;6.10;;
48951;SDS011;34758;42.148;24.744;2022-08-20T02:48:43;9.25;;;7.03;;
48951;SDS011;34758;42.148;24.744;2022-08-20T02:51:12;13.68;;;7.10;;
48951;SDS011;34758;42.148;24.744;2022-08-20T02:53:39;10.25;;;6.35;;
48951;SDS011;34758;42.148;24.744;2022-08-20T02:56:07;8.88;;;7.07;;
48951;SDS011;34758;42.148;24.744;2022-08-20T02:58:35;6.60;;;5.70;;
48951;SDS011;34758;42.148;24.744;2022-08-20T03:01:04;6.57;;;5.97;;
48951;SDS011;34758;42.148;24.744;2022-08-20T03:03:32;9.00;;;6.60;;
48951;SDS011;34758;42.148;24.744;2022-08-20T03:05:59;8.88;;;6.53;;
48951;SDS011;34758;42.148;24.744;2022-08-20T03:08:28;8.10;;;7.30;;
48951;SDS011;34758;42.148;24.744;2022-08-20T03:10:55;8.38;;;7.13;;
48951;SDS011;34758;42.148;24.744;2022-08-20T03:13:22;10.32;;;6.65;;
48951;SDS011;34758;42.148;24.744;2022-08-20T03:15:50;12.63;;;7.07;;
48951;SDS011;34758;42.148;24.744;2022-08-20T03:18:18;7.97;;;7.18;;
48951;SDS011;34758;42.148;24.744;2022-08-20T03:20:47;8.18;;;7.38;;
48951;SDS011;34758;42.148;24.744;2022-08-20T03:23:15;8.30;;;7.25;;
48951;SDS011;34758;42.148;24.744;2022-08-20T03:25:44;9.05;;;7.00;;
48951;SDS011;34758;42.148;24.744;2022-08-20T03:28:12;8.40;;;7.10;;
48951;SDS011;34758;42.148;24.744;2022-08-20T03:30:39;10.60;;;7.00;;
48951;SDS011;34758;42.148;24.744;2022-08-20T03:33:06;10.77;;;7.53;;
48951;SDS011;34758;42.148;24.744;2022-08-20T03:35:35;10.25;;;7.18;;
48951;SDS011;34758;42.148;24.744;2022-08-20T03:38:04;8.45;;;7.03;;
48951;SDS011;34758;42.148;24.744;2022-08-20T03:40:33;9.57;;;7.95;;
48951;SDS011;34758;42.148;24.744;2022-08-20T03:43:02;9.60;;;7.72;;
48951;SDS011;34758;42.148;24.744;2022-08-20T03:45:29;12.23;;;8.75;;
48951;SDS011;34758;42.148;24.744;2022-08-20T03:47:57;11.52;;;8.63;;
48951;SDS011;34758;42.148;24.744;2022-08-20T03:50:27;13.68;;;8.75;;
48951;SDS011;34758;42.148;24.744;2022-08-20T03:52:57;17.40;;;10.13;;
48951;SDS011;34758;42.148;24.744;2022-08-20T03:55:24;9.63;;;7.25;;
48951;SDS011;34758;42.148;24.744;2022-08-20T03:57:53;16.15;;;8.85;;
48951;SDS011;34758;42.148;24.744;2022-08-20T04:00:24;14.85;;;9.15;;
48951;SDS011;34758;42.148;24.744;2022-08-20T04:02:52;10.90;;;8.45;;
48951;SDS011;34758;42.148;24.744;2022-08-20T04:05:21;10.52;;;7.75;;
48951;SDS011;34758;42.148;24.744;2022-08-20T04:07:49;9.80;;;8.48;;
48951;SDS011;34758;42.148;24.744;2022-08-20T04:10:16;10.48;;;8.00;;
48951;SDS011;34758;42.148;24.744;2022-08-20T04:12:43;9.85;;;7.72;;
48951;SDS011;34758;42.148;24.744;2022-08-20T04:15:11;13.00;;;8.48;;
48951;SDS011;34758;42.148;24.744;2022-08-20T04:17:42;10.90;;;8.60;;
48951;SDS011;34758;42.148;24.744;2022-08-20T04:20:11;10.60;;;8.27;;
48951;SDS011;34758;42.148;24.744;2022-08-20T04:22:40;12.52;;;7.47;;
48951;SDS011;34758;42.148;24.744;2022-08-20T04:25:08;10.38;;;7.40;;
48951;SDS011;34758;42.148;24.744;2022-08-20T04:27:35;9.27;;;7.40;;
48951;SDS011;34758;42.148;24.744;2022-08-20T04:30:03;11.90;;;7.70;;
48951;SDS011;34758;42.148;24.744;2022-08-20T04:32:31;12.95;;;7.47;;
48951;SDS011;34758;42.148;24.744;2022-08-20T04:35:02;9.80;;;6.93;;
48951;SDS011;34758;42.148;24.744;2022-08-20T04:37:30;12.98;;;8.10;;
48951;SDS011;34758;42.148;24.744;2022-08-20T04:40:01;13.10;;;8.38;;
48951;SDS011;34758;42.148;24.744;2022-08-20T04:42:46;11.88;;;7.82;;
48951;SDS011;34758;42.148;24.744;2022-08-20T04:45:13;13.27;;;8.10;;
48951;SDS011;34758;42.148;24.744;2022-08-20T04:47:40;15.60;;;8.95;;
48951;SDS011;34758;42.148;24.744;2022-08-20T04:50:10;10.85;;;8.48;;
48951;SDS011;34758;42.148;24.744;2022-08-20T04:52:37;11.50;;;9.13;;
48951;SDS011;34758;42.148;24.744;2022-08-20T04:55:04;13.50;;;9.05;;
48951;SDS011;34758;42.148;24.744;2022-08-20T04:57:32;10.05;;;8.50;;
48951;SDS011;34758;42.148;24.744;2022-08-20T05:00:01;11.02;;;8.98;;
48951;SDS011;34758;42.148;24.744;2022-08-20T05:02:29;15.05;;;9.05;;
48951;SDS011;34758;42.148;24.744;2022-08-20T05:04:56;12.63;;;9.45;;
48951;SDS011;34758;42.148;24.744;2022-08-20T05:07:24;11.85;;;9.63;;
48951;SDS011;34758;42.148;24.744;2022-08-20T05:09:51;12.73;;;8.63;;
48951;SDS011;34758;42.148;24.744;2022-08-20T05:12:18;13.52;;;9.93;;
48951;SDS011;34758;42.148;24.744;2022-08-20T05:14:45;11.55;;;9.70;;
48951;SDS011;34758;42.148;24.744;2022-08-20T05:17:12;11.02;;;8.65;;
48951;SDS011;34758;42.148;24.744;2022-08-20T05:19:41;13.55;;;10.05;;
48951;SDS011;34758;42.148;24.744;2022-08-20T05:22:10;13.38;;;9.80;;
48951;SDS011;34758;42.148;24.744;2022-08-20T05:24:39;14.13;;;9.82;;
48951;SDS011;34758;42.148;24.744;2022-08-20T05:27:06;10.95;;;9.40;;
48951;SDS011;34758;42.148;24.744;2022-08-20T05:29:33;11.00;;;9.18;;
48951;SDS011;34758;42.148;24.744;2022-08-20T05:32:00;12.43;;;9.05;;
48951;SDS011;34758;42.148;24.744;2022-08-20T05:34:27;14.55;;;8.77;;
48951;SDS011;34758;42.148;24.744;2022-08-20T05:36:54;12.82;;;8.90;;
48951;SDS011;34758;42.148;24.744;2022-08-20T05:39:21;14.43;;;10.73;;
48951;SDS011;34758;42.148;24.744;2022-08-20T05:41:49;13.15;;;9.43;;
48951;SDS011;34758;42.148;24.744;2022-08-20T05:44:17;13.82;;;10.13;;
48951;SDS011;34758;42.148;24.744;2022-08-20T05:46:45;11.63;;;9.35;;
48951;SDS011;34758;42.148;24.744;2022-08-20T05:49:13;17.02;;;9.45;;
48951;SDS011;34758;42.148;24.744;2022-08-20T05:51:41;11.88;;;9.48;;
48951;SDS011;34758;42.148;24.744;2022-08-20T05:54:08;14.75;;;9.93;;
48951;SDS011;34758;42.148;24.744;2022-08-20T05:56:35;14.07;;;8.68;;
48951;SDS011;34758;42.148;24.744;2022-08-20T05:59:04;14.20;;;9.73;;
48951;SDS011;34758;42.148;24.744;2022-08-20T06:01:34;15.47;;;9.83;;
48951;SDS011;34758;42.148;24.744;2022-08-20T06:04:03;12.93;;;9.65;;
48951;SDS011;34758;42.148;24.744;2022-08-20T06:06:47;12.88;;;9.73;;
48951;SDS011;34758;42.148;24.744;2022-08-20T06:09:15;12.30;;;8.68;;
48951;SDS011;34758;42.148;24.744;2022-08-20T06:11:43;9.05;;;8.13;;
48951;SDS011;34758;42.148;24.744;2022-08-20T06:14:11;11.30;;;9.52;;
48951;SDS011;34758;42.148;24.744;2022-08-20T06:16:40;20.33;;;9.90;;
48951;SDS011;34758;42.148;24.744;2022-08-20T06:19:07;10.95;;;9.50;;
48951;SDS011;34758;42.148;24.744;2022-08-20T06:21:34;11.68;;;8.70;;
48951;SDS011;34758;42.148;24.744;2022-08-20T06:24:03;17.15;;;9.35;;
48951;SDS011;34758;42.148;24.744;2022-08-20T06:26:31;11.27;;;8.65;;
48951;SDS011;34758;42.148;24.744;2022-08-20T06:28:59;10.57;;;8.50;;
48951;SDS011;34758;42.148;24.744;2022-08-20T06:31:27;12.85;;;9.02;;
48951;SDS011;34758;42.148;24.744;2022-08-20T06:33:54;14.45;;;9.85;;
48951;SDS011;34758;42.148;24.744;2022-08-20T06:36:21;17.15;;;9.60;;
48951;SDS011;34758;42.148;24.744;2022-08-20T06:38:49;10.82;;;8.50;;
48951;SDS011;34758;42.148;24.744;2022-08-20T06:41:16;9.88;;;8.35;;
48951;SDS011;34758;42.148;24.744;2022-08-20T06:43:43;11.25;;;9.18;;
48951;SDS011;34758;42.148;24.744;2022-08-20T06:46:10;13.52;;;9.90;;
48951;SDS011;34758;42.148;24.744;2022-08-20T06:48:40;11.32;;;8.82;;
48951;SDS011;34758;42.148;24.744;2022-08-20T06:51:07;9.63;;;8.63;;
48951;SDS011;34758;42.148;24.744;2022-08-20T06:53:34;11.65;;;8.45;;
48951;SDS011;34758;42.148;24.744;2022-08-20T06:56:01;12.10;;;9.35;;
48951;SDS011;34758;42.148;24.744;2022-08-20T06:58:29;11.80;;;8.88;;
48951;SDS011;34758;42.148;24.744;2022-08-20T07:00:57;10.07;;;8.27;;
48951;SDS011;34758;42.148;24.744;2022-08-20T07:03:25;8.50;;;7.63;;
48951;SDS011;34758;42.148;24.744;2022-08-20T07:05:53;9.23;;;7.43;;
48951;SDS011;34758;42.148;24.744;2022-08-20T07:08:20;12.48;;;8.02;;
48951;SDS011;34758;42.148;24.744;2022-08-20T07:10:47;11.07;;;8.07;;
48951;SDS011;34758;42.148;24.744;2022-08-20T07:13:15;8.90;;;8.00;;
48951;SDS011;34758;42.148;24.744;2022-08-20T07:15:42;14.32;;;8.40;;
48951;SDS011;34758;42.148;24.744;2022-08-20T07:18:10;8.70;;;7.80;;
48951;SDS011;34758;42.148;24.744;2022-08-20T07:20:38;11.32;;;8.05;;
48951;SDS011;34758;42.148;24.744;2022-08-20T07:23:07;9.82;;;8.05;;
48951;SDS011;34758;42.148;24.744;2022-08-20T07:25:34;11.05;;;7.63;;
48951;SDS011;34758;42.148;24.744;2022-08-20T07:28:01;9.48;;;7.65;;
48951;SDS011;34758;42.148;24.744;2022-08-20T07:30:29;9.68;;;8.32;;
48951;SDS011;34758;42.148;24.744;2022-08-20T07:33:14;10.80;;;8.45;;
48951;SDS011;34758;42.148;24.744;2022-08-20T07:35:43;10.57;;;8.20;;
48951;SDS011;34758;42.148;24.744;2022-08-20T07:38:15;11.27;;;9.03;;
48951;SDS011;34758;42.148;24.744;2022-08-20T07:40:48;9.68;;;7.10;;
48951;SDS011;34758;42.148;24.744;2022-08-20T07:43:16;10.98;;;8.00;;
48951;SDS011;34758;42.148;24.744;2022-08-20T07:45:43;13.00;;;7.95;;
48951;SDS011;34758;42.148;24.744;2022-08-20T07:48:11;9.85;;;8.32;;
48951;SDS011;34758;42.148;24.744;2022-08-20T07:50:39;9.52;;;8.30;;
48951;SDS011;34758;42.148;24.744;2022-08-20T07:53:11;8.40;;;7.60;;
48951;SDS011;34758;42.148;24.744;2022-08-20T07:55:39;12.95;;;8.93;;
48951;SDS011;34758;42.148;24.744;2022-08-20T07:58:08;9.90;;;8.82;;
48951;SDS011;34758;42.148;24.744;2022-08-20T08:00:38;11.43;;;7.75;;
48951;SDS011;34758;42.148;24.744;2022-08-20T08:03:06;11.00;;;8.10;;
48951;SDS011;34758;42.148;24.744;2022-08-20T08:05:34;9.63;;;7.90;;
48951;SDS011;34758;42.148;24.744;2022-08-20T08:08:03;14.32;;;8.50;;
48951;SDS011;34758;42.148;24.744;2022-08-20T08:10:31;11.45;;;8.70;;
48951;SDS011;34758;42.148;24.744;2022-08-20T08:13:04;9.77;;;8.25;;
48951;SDS011;34758;42.148;24.744;2022-08-20T08:18:03;9.43;;;8.57;;
48951;SDS011;34758;42.148;24.744;2022-08-20T08:20:41;12.40;;;7.93;;
48951;SDS011;34758;42.148;24.744;2022-08-20T08:23:10;9.95;;;7.72;;
48951;SDS011;34758;42.148;24.744;2022-08-20T08:25:37;9.50;;;8.07;;
48951;SDS011;34758;42.148;24.744;2022-08-20T08:28:07;8.00;;;7.30;;
48951;SDS011;34758;42.148;24.744;2022-08-20T08:30:36;13.13;;;8.05;;
48951;SDS011;34758;42.148;24.744;2022-08-20T08:33:04;10.68;;;7.97;;
48951;SDS011;34758;42.148;24.744;2022-08-20T08:35:48;10.00;;;8.35;;
48951;SDS011;34758;42.148;24.744;2022-08-20T08:38:15;10.27;;;7.65;;
48951;SDS011;34758;42.148;24.744;2022-08-20T08:40:42;9.13;;;8.10;;
48951;SDS011;34758;42.148;24.744;2022-08-20T08:43:11;9.77;;;7.85;;
48951;SDS011;34758;42.148;24.744;2022-08-20T08:45:41;10.93;;;7.30;;
48951;SDS011;34758;42.148;24.744;2022-08-20T08:48:11;11.57;;;8.07;;
48951;SDS011;34758;42.148;24.744;2022-08-20T08:50:43;12.63;;;7.35;;
48951;SDS011;34758;42.148;24.744;2022-08-20T08:53:14;14.60;;;8.67;;
48951;SDS011;34758;42.148;24.744;2022-08-20T08:55:44;10.80;;;7.78;;
48951;SDS011;34758;42.148;24.744;2022-08-20T08:58:13;9.35;;;7.53;;
48951;SDS011;34758;42.148;24.744;2022-08-20T09:00:40;10.95;;;6.95;;
48951;SDS011;34758;42.148;24.744;2022-08-20T09:03:08;12.55;;;7.72;;
48951;SDS011;34758;42.148;24.744;2022-08-20T09:05:41;11.02;;;8.00;;
48951;SDS011;34758;42.148;24.744;2022-08-20T09:08:17;9.75;;;7.80;;
48951;SDS011;34758;42.148;24.744;2022-08-20T09:10:47;8.20;;;7.15;;
48951;SDS011;34758;42.148;24.744;2022-08-20T09:13:15;7.25;;;6.55;;
48951;SDS011;34758;42.148;24.744;2022-08-20T09:15:43;12.13;;;7.05;;
48951;SDS011;34758;42.148;24.744;2022-08-20T09:18:10;12.85;;;7.18;;
48951;SDS011;34758;42.148;24.744;2022-08-20T09:20:37;8.23;;;7.18;;
48951;SDS011;34758;42.148;24.744;2022-08-20T09:23:05;7.22;;;6.55;;
48951;SDS011;34758;42.148;24.744;2022-08-20T09:25:32;9.57;;;7.32;;
48951;SDS011;34758;42.148;24.744;2022-08-20T09:27:59;10.23;;;7.50;;
48951;SDS011;34758;42.148;24.744;2022-08-20T09:30:27;16.00;;;7.80;;
48951;SDS011;34758;42.148;24.744;2022-08-20T09:32:54;13.10;;;7.82;;
48951;SDS011;34758;42.148;24.744;2022-08-20T09:35:22;10.57;;;7.50;;
48951;SDS011;34758;42.148;24.744;2022-08-20T09:37:49;8.70;;;6.97;;
48951;SDS011;34758;42.148;24.744;2022-08-20T09:40:18;11.05;;;6.95;;
48951;SDS011;34758;42.148;24.744;2022-08-20T09:42:45;14.60;;;7.28;;
48951;SDS011;34758;42.148;24.744;2022-08-20T09:45:12;7.30;;;6.55;;
48951;SDS011;34758;42.148;24.744;2022-08-20T09:47:41;10.68;;;7.00;;
48951;SDS011;34758;42.148;24.744;2022-08-20T09:50:08;10.52;;;6.78;;
48951;SDS011;34758;42.148;24.744;2022-08-20T09:52:36;8.00;;;7.20;;
48951;SDS011;34758;42.148;24.744;2022-08-20T09:55:07;11.20;;;6.70;;
48951;SDS011;34758;42.148;24.744;2022-08-20T09:57:42;10.80;;;7.43;;
48951;SDS011;34758;42.148;24.744;2022-08-20T10:00:09;7.78;;;6.60;;
48951;SDS011;34758;42.148;24.744;2022-08-20T10:02:37;10.18;;;7.28;;
48951;SDS011;34758;42.148;24.744;2022-08-20T10:05:06;9.88;;;7.60;;
48951;SDS011;34758;42.148;24.744;2022-08-20T10:07:33;13.38;;;7.95;;
48951;SDS011;34758;42.148;24.744;2022-08-20T10:10:00;20.13;;;7.53;;
48951;SDS011;34758;42.148;24.744;2022-08-20T10:12:27;12.13;;;6.38;;
48951;SDS011;34758;42.148;24.744;2022-08-20T10:14:54;17.88;;;8.25;;
48951;SDS011;34758;42.148;24.744;2022-08-20T10:17:21;22.70;;;8.60;;
48951;SDS011;34758;42.148;24.744;2022-08-20T10:19:48;17.63;;;7.88;;
48951;SDS011;34758;42.148;24.744;2022-08-20T10:22:16;7.95;;;7.25;;
48951;SDS011;34758;42.148;24.744;2022-08-20T10:24:43;12.10;;;7.40;;
48951;SDS011;34758;42.148;24.744;2022-08-20T10:27:10;7.60;;;6.82;;
48951;SDS011;34758;42.148;24.744;2022-08-20T10:29:37;7.07;;;6.43;;
48951;SDS011;34758;42.148;24.744;2022-08-20T10:32:07;9.35;;;7.80;;
48951;SDS011;34758;42.148;24.744;2022-08-20T10:34:36;9.40;;;6.93;;
48951;SDS011;34758;42.148;24.744;2022-08-20T10:37:04;8.52;;;7.60;;
48951;SDS011;34758;42.148;24.744;2022-08-20T10:39:32;9.85;;;7.00;;
48951;SDS011;34758;42.148;24.744;2022-08-20T10:41:59;10.27;;;6.47;;
48951;SDS011;34758;42.148;24.744;2022-08-20T10:44:26;8.52;;;6.90;;
48951;SDS011;34758;42.148;24.744;2022-08-20T10:46:53;7.75;;;6.75;;
48951;SDS011;34758;42.148;24.744;2022-08-20T10:49:21;8.20;;;6.78;;
48951;SDS011;34758;42.148;24.744;2022-08-20T10:51:48;8.15;;;6.95;;
48951;SDS011;34758;42.148;24.744;2022-08-20T10:54:15;8.38;;;6.45;;
48951;SDS011;34758;42.148;24.744;2022-08-20T10:56:43;7.57;;;6.15;;
48951;SDS011;34758;42.148;24.744;2022-08-20T10:59:12;7.13;;;6.50;;
48951;SDS011;34758;42.148;24.744;2022-08-20T11:01:38;10.40;;;5.82;;
48951;SDS011;34758;42.148;24.744;2022-08-20T11:04:05;6.90;;;6.25;;
48951;SDS011;34758;42.148;24.744;2022-08-20T11:06:32;7.28;;;6.30;;
48951;SDS011;34758;42.148;24.744;2022-08-20T11:08:59;7.93;;;5.97;;
48951;SDS011;34758;42.148;24.744;2022-08-20T11:11:27;6.70;;;6.05;;
48951;SDS011;34758;42.148;24.744;2022-08-20T11:13:55;8.57;;;5.80;;
48951;SDS011;34758;42.148;24.744;2022-08-20T11:16:22;7.60;;;5.93;;
48951;SDS011;34758;42.148;24.744;2022-08-20T11:18:49;9.48;;;6.47;;
48951;SDS011;34758;42.148;24.744;2022-08-20T11:21:16;7.72;;;5.70;;
48951;SDS011;34758;42.148;24.744;2022-08-20T11:23:43;8.95;;;5.57;;
48951;SDS011;34758;42.148;24.744;2022-08-20T11:26:10;8.80;;;5.57;;
48951;SDS011;34758;42.148;24.744;2022-08-20T11:28:49;5.95;;;5.45;;
48951;SDS011;34758;42.148;24.744;2022-08-20T11:31:17;8.45;;;5.50;;
48951;SDS011;34758;42.148;24.744;2022-08-20T11:33:45;6.47;;;4.95;;
48951;SDS011;34758;42.148;24.744;2022-08-20T11:36:12;7.97;;;5.28;;
48951;SDS011;34758;42.148;24.744;2022-08-20T11:38:39;8.77;;;5.22;;
48951;SDS011;34758;42.148;24.744;2022-08-20T11:41:06;7.78;;;5.35;;
48951;SDS011;34758;42.148;24.744;2022-08-20T11:43:33;12.77;;;5.90;;
48951;SDS011;34758;42.148;24.744;2022-08-20T11:45:59;11.90;;;6.38;;
48951;SDS011;34758;42.148;24.744;2022-08-20T11:48:28;7.82;;;5.97;;
48951;SDS011;34758;42.148;24.744;2022-08-20T11:50:54;28.60;;;8.23;;
48951;SDS011;34758;42.148;24.744;2022-08-20T11:53:21;8.30;;;5.70;;
48951;SDS011;34758;42.148;24.744;2022-08-20T11:55:48;8.88;;;6.05;;
48951;SDS011;34758;42.148;24.744;2022-08-20T11:58:16;11.95;;;5.88;;
48951;SDS011;34758;42.148;24.744;2022-08-20T12:00:43;12.02;;;5.72;;
48951;SDS011;34758;42.148;24.744;2022-08-20T12:03:10;6.43;;;5.82;;
48951;SDS011;34758;42.148;24.744;2022-08-20T12:05:39;10.20;;;5.45;;
48951;SDS011;34758;42.148;24.744;2022-08-20T12:08:07;6.67;;;5.33;;
48951;SDS011;34758;42.148;24.744;2022-08-20T12:10:34;7.47;;;5.32;;
48951;SDS011;34758;42.148;24.744;2022-08-20T12:13:02;6.65;;;6.05;;
48951;SDS011;34758;42.148;24.744;2022-08-20T12:15:30;5.25;;;4.85;;
48951;SDS011;34758;42.148;24.744;2022-08-20T12:17:57;5.85;;;5.05;;
48951;SDS011;34758;42.148;24.744;2022-08-20T12:20:25;8.55;;;5.30;;
48951;SDS011;34758;42.148;24.744;2022-08-20T12:22:53;8.15;;;5.30;;
48951;SDS011;34758;42.148;24.744;2022-08-20T12:25:23;7.18;;;5.68;;
48951;SDS011;34758;42.148;24.744;2022-08-20T12:27:50;5.60;;;4.97;;
48951;SDS011;34758;42.148;24.744;2022-08-20T12:30:17;5.95;;;4.78;;
48951;SDS011;34758;42.148;24.744;2022-08-20T12:32:47;7.30;;;5.22;;
48951;SDS011;34758;42.148;24.744;2022-08-20T12:35:14;9.20;;;5.10;;
48951;SDS011;34758;42.148;24.744;2022-08-20T12:37:42;6.30;;;5.68;;
48951;SDS011;34758;42.148;24.744;2022-08-20T12:40:12;7.10;;;5.28;;
48951;SDS011;34758;42.148;24.744;2022-08-20T12:42:41;10.40;;;4.93;;
48951;SDS011;34758;42.148;24.744;2022-08-20T12:45:08;10.60;;;5.50;;
48951;SDS011;34758;42.148;24.744;2022-08-20T12:47:36;7.50;;;4.97;;
48951;SDS011;34758;42.148;24.744;2022-08-20T12:50:05;5.88;;;5.18;;
48951;SDS011;34758;42.148;24.744;2022-08-20T12:52:34;6.15;;;5.22;;
48951;SDS011;34758;42.148;24.744;2022-08-20T12:55:02;5.80;;;4.60;;
48951;SDS011;34758;42.148;24.744;2022-08-20T12:57:33;7.28;;;4.50;;
48951;SDS011;34758;42.148;24.744;2022-08-20T13:00:06;6.20;;;4.82;;
48951;SDS011;34758;42.148;24.744;2022-08-20T13:02:36;5.40;;;4.90;;
48951;SDS011;34758;42.148;24.744;2022-08-20T13:05:03;5.10;;;4.57;;
48951;SDS011;34758;42.148;24.744;2022-08-20T13:07:35;6.78;;;4.25;;
48951;SDS011;34758;42.148;24.744;2022-08-20T13:10:02;6.88;;;4.63;;
48951;SDS011;34758;42.148;24.744;2022-08-20T13:12:31;5.07;;;4.57;;
48951;SDS011;34758;42.148;24.744;2022-08-20T13:14:59;5.35;;;4.65;;
48951;SDS011;34758;42.148;24.744;2022-08-20T13:17:25;7.57;;;4.93;;
48951;SDS011;34758;42.148;24.744;2022-08-20T13:19:52;5.40;;;4.70;;
48951;SDS011;34758;42.148;24.744;2022-08-20T13:22:19;5.53;;;4.93;;
48951;SDS011;34758;42.148;24.744;2022-08-20T13:24:46;8.93;;;5.20;;
48951;SDS011;34758;42.148;24.744;2022-08-20T13:27:14;5.95;;;5.03;;
48951;SDS011;34758;42.148;24.744;2022-08-20T13:29:46;6.07;;;5.28;;
48951;SDS011;34758;42.148;24.744;2022-08-20T13:32:13;7.57;;;4.53;;
48951;SDS011;34758;42.148;24.744;2022-08-20T13:34:40;6.47;;;4.68;;
48951;SDS011;34758;42.148;24.744;2022-08-20T13:37:10;5.00;;;4.55;;
48951;SDS011;34758;42.148;24.744;2022-08-20T13:39:38;5.07;;;4.55;;
48951;SDS011;34758;42.148;24.744;2022-08-20T13:42:06;7.38;;;4.47;;
48951;SDS011;34758;42.148;24.744;2022-08-20T13:44:33;5.38;;;4.85;;
48951;SDS011;34758;42.148;24.744;2022-08-20T13:47:12;4.85;;;4.43;;
48951;SDS011;34758;42.148;24.744;2022-08-20T13:49:40;5.15;;;4.40;;
48951;SDS011;34758;42.148;24.744;2022-08-20T13:52:10;5.45;;;4.93;;
48951;SDS011;34758;42.148;24.744;2022-08-20T13:54:38;5.88;;;5.38;;
48951;SDS011;34758;42.148;24.744;2022-08-20T13:57:07;8.45;;;4.95;;
48951;SDS011;34758;42.148;24.744;2022-08-20T13:59:36;5.70;;;4.78;;
48951;SDS011;34758;42.148;24.744;2022-08-20T14:02:03;7.78;;;4.65;;
48951;SDS011;34758;42.148;24.744;2022-08-20T14:04:32;5.32;;;4.82;;
48951;SDS011;34758;42.148;24.744;2022-08-20T14:07:07;5.55;;;5.05;;
48951;SDS011;34758;42.148;24.744;2022-08-20T14:09:35;6.40;;;4.47;;
48951;SDS011;34758;42.148;24.744;2022-08-20T14:12:03;4.40;;;4.03;;
48951;SDS011;34758;42.148;24.744;2022-08-20T14:14:30;4.55;;;4.10;;
48951;SDS011;34758;42.148;24.744;2022-08-20T14:16:57;7.25;;;5.28;;
48951;SDS011;34758;42.148;24.744;2022-08-20T14:19:24;4.95;;;4.53;;
48951;SDS011;34758;42.148;24.744;2022-08-20T14:21:52;6.18;;;5.10;;
48951;SDS011;34758;42.148;24.744;2022-08-20T14:24:19;5.50;;;4.45;;
48951;SDS011;34758;42.148;24.744;2022-08-20T14:26:46;8.05;;;4.55;;
48951;SDS011;34758;42.148;24.744;2022-08-20T14:29:13;8.55;;;4.65;;
48951;SDS011;34758;42.148;24.744;2022-08-20T14:31:43;6.57;;;4.53;;
48951;SDS011;34758;42.148;24.744;2022-08-20T14:34:10;10.95;;;5.25;;
48951;SDS011;34758;42.148;24.744;2022-08-20T14:36:38;5.60;;;4.70;;
48951;SDS011;34758;42.148;24.744;2022-08-20T14:39:07;8.98;;;5.20;;